KBVO/BVO METAR and TAF weather

Enter ICAO airport designator
Station Type Date Time Source
KBVO METAR 2018/10/22 16:53 UTC NOAA

KBVO 221653Z 17010G18KT 10SM CLR 18/07 A3019 RMK AO2 SLP217 T01830067


Station Type Date Time Source
KBVO Decoded METAR 2018/10/22 16:53 UTC NOAA

BARTLESVILLE MUNICIPAL AIRPORT , OK, United States (KBVO) 36-46N 96-01W 210M
Oct 22, 2018 - 12:53 PM EDT / 2018.10.22 1653 UTC
Wind: from the S (170 degrees) at 12 MPH (10 KT) gusting to 21 MPH (18 KT):0
Visibility: 10 mile(s):0
Sky conditions: clear
Temperature: 64.9 F (18.3 C)
Dew Point: 44.1 F (6.7 C)
Relative Humidity: 46%
Pressure (altimeter): 30.19 in. Hg (1022 hPa)
ob: KBVO 221653Z 17010G18KT 10SM CLR 18/07 A3019 RMK AO2 SLP217 T01830067
cycle: 17

Station Type Date Time Source
KBVO TAF 2018/10/22 12:22 UTC NOAA

TAF KBVO 221120Z 2212/2312 18003KT P6SM FEW250
FM221500 19010KT P6SM SCT250
FM230000 17003KT P6SM BKN150


Example: see airport list